createdAt,value
2018-02-21T00:00:21.710Z,42.40
2018-02-21T00:02:50.081Z,46.23
2018-02-21T00:05:18.468Z,42.70
2018-02-21T00:07:46.836Z,53.87
2018-02-21T00:10:15.214Z,39.83
2018-02-21T00:12:43.572Z,46.30
2018-02-21T00:15:11.951Z,305.57
2018-02-21T00:17:40.312Z,48.30
2018-02-21T00:20:09.098Z,50.73
2018-02-21T00:22:38.723Z,49.80
2018-02-21T00:25:07.459Z,48.57
2018-02-21T00:27:35.926Z,51.80
2018-02-21T00:30:04.328Z,51.97
2018-02-21T00:32:32.684Z,50.47
2018-02-21T00:35:01.053Z,50.70
2018-02-21T00:37:29.419Z,45.17
2018-02-21T00:39:57.794Z,43.07
2018-02-21T00:42:26.160Z,53.00
2018-02-21T00:44:54.519Z,45.80
2018-02-21T00:47:23.279Z,42.67
2018-02-21T00:49:51.652Z,44.43
2018-02-21T00:52:19.999Z,46.03
2018-02-21T00:54:48.373Z,41.50
2018-02-21T00:57:16.740Z,51.13
2018-02-21T00:59:45.103Z,42.17
2018-02-21T01:02:14.176Z,45.50
2018-02-21T01:04:42.553Z,41.33
2018-02-21T01:07:10.920Z,44.93
2018-02-21T01:09:39.302Z,43.53
2018-02-21T01:12:07.677Z,41.63
2018-02-21T01:14:36.042Z,41.73
2018-02-21T01:17:04.420Z,48.70
2018-02-21T01:19:32.820Z,39.03
2018-02-21T01:22:01.181Z,46.10
2018-02-21T01:24:29.566Z,42.67
2018-02-21T01:26:57.935Z,42.67
2018-02-21T01:29:26.310Z,42.67
2018-02-21T01:31:54.667Z,41.77
2018-02-21T01:34:23.032Z,43.97
2018-02-21T01:36:51.404Z,48.83
2018-02-21T01:39:20.216Z,41.87
2018-02-21T01:41:48.588Z,45.20
2018-02-21T01:44:16.950Z,47.20
2018-02-21T01:46:45.319Z,50.23
2018-02-21T01:49:14.069Z,52.13
2018-02-21T01:51:42.453Z,50.30
2018-02-21T01:54:10.814Z,37.80
2018-02-21T01:56:39.213Z,42.67
2018-02-21T01:59:07.587Z,52.77
2018-02-21T02:01:35.968Z,50.60
2018-02-21T02:04:04.333Z,43.90
2018-02-21T02:06:32.696Z,44.57
2018-02-21T02:09:01.068Z,59.00
2018-02-21T02:11:29.446Z,49.53
2018-02-21T02:13:57.840Z,47.20
2018-02-21T02:16:26.220Z,46.50
2018-02-21T02:18:54.597Z,57.53
2018-02-21T02:21:22.966Z,51.43
2018-02-21T02:23:51.359Z,50.03
2018-02-21T02:26:19.733Z,46.70
2018-02-21T02:28:48.128Z,47.60
2018-02-21T02:31:16.510Z,47.40
2018-02-21T02:33:44.872Z,51.93
2018-02-21T02:36:13.252Z,49.10
2018-02-21T02:38:42.272Z,47.73
2018-02-21T02:41:10.736Z,42.13
2018-02-21T02:43:39.105Z,51.37
2018-02-21T02:46:07.484Z,56.70
2018-02-21T02:48:35.848Z,50.03
2018-02-21T02:51:04.225Z,49.43
2018-02-21T02:53:32.619Z,46.53
2018-02-21T02:56:01.005Z,43.47
2018-02-21T02:58:29.373Z,62.57
2018-02-21T03:00:57.761Z,51.00
2018-02-21T03:03:26.143Z,51.63
2018-02-21T03:05:54.521Z,50.00
2018-02-21T03:08:22.913Z,59.17
2018-02-21T03:10:51.297Z,50.13
2018-02-21T03:13:19.657Z,53.00
2018-02-21T03:15:48.050Z,43.77
2018-02-21T03:18:16.417Z,42.67
2018-02-21T03:20:44.796Z,53.77
2018-02-21T03:23:13.157Z,51.93
2018-02-21T03:25:41.528Z,49.67
2018-02-21T03:28:09.900Z,47.10
2018-02-21T03:30:38.285Z,49.60
2018-02-21T03:33:06.664Z,48.20
2018-02-21T03:35:35.040Z,44.97
2018-02-21T03:38:03.404Z,49.77
2018-02-21T03:40:32.173Z,55.47
2018-02-21T03:43:00.929Z,57.30
2018-02-21T03:45:29.306Z,41.60
2018-02-21T03:47:57.700Z,46.17
2018-02-21T03:50:26.077Z,43.27
2018-02-21T03:52:54.435Z,47.27
2018-02-21T03:55:22.818Z,46.10
2018-02-21T03:57:51.204Z,44.87
2018-02-21T04:00:19.560Z,49.17
2018-02-21T04:02:47.937Z,60.43
2018-02-21T04:05:16.310Z,47.37
2018-02-21T04:07:44.689Z,51.67
2018-02-21T04:10:13.059Z,47.37
2018-02-21T04:12:41.446Z,44.33
2018-02-21T04:15:09.859Z,51.80
2018-02-21T04:17:38.253Z,43.03
2018-02-21T04:20:06.600Z,41.77
2018-02-21T04:22:35.021Z,41.63
2018-02-21T04:25:03.472Z,44.90
2018-02-21T04:27:31.840Z,48.37
2018-02-21T04:30:00.232Z,55.53
2018-02-21T04:32:28.596Z,51.27
2018-02-21T04:34:57.052Z,39.03
2018-02-21T04:37:25.418Z,45.23
2018-02-21T04:39:53.772Z,46.37
2018-02-21T04:42:22.232Z,46.63
2018-02-21T04:44:50.588Z,46.77
2018-02-21T04:47:18.953Z,48.07
2018-02-21T04:49:47.365Z,47.30
2018-02-21T04:52:15.835Z,57.10
2018-02-21T04:54:49.731Z,47.03
2018-02-21T04:57:19.039Z,46.87
2018-02-21T04:59:47.604Z,44.43
2018-02-21T05:02:15.969Z,48.67
2018-02-21T05:04:44.345Z,44.90
2018-02-21T05:07:12.693Z,62.00
2018-02-21T05:09:41.048Z,50.97
2018-02-21T05:12:09.431Z,46.07
2018-02-21T05:14:37.797Z,43.90
2018-02-21T05:17:06.163Z,42.40
2018-02-21T05:19:34.569Z,51.60
2018-02-21T05:22:02.933Z,47.60
2018-02-21T05:24:31.345Z,49.23
2018-02-21T05:26:59.723Z,46.47
2018-02-21T05:29:28.483Z,48.87
2018-02-21T05:31:56.876Z,50.03
2018-02-21T05:34:25.248Z,49.50
2018-02-21T05:36:53.611Z,55.77
2018-02-21T05:39:21.964Z,56.13
2018-02-21T05:41:50.341Z,49.17
2018-02-21T05:44:18.706Z,49.90
2018-02-21T05:46:47.456Z,47.97
2018-02-21T05:49:15.837Z,56.73
2018-02-21T05:51:44.197Z,46.90
2018-02-21T05:54:12.555Z,44.67
2018-02-21T05:56:40.952Z,45.20
2018-02-21T05:59:09.370Z,47.93
2018-02-21T06:01:37.825Z,60.30
2018-02-21T06:04:06.221Z,53.93
2018-02-21T06:06:34.776Z,44.47
2018-02-21T06:09:03.127Z,54.47
2018-02-21T06:11:31.540Z,51.00
2018-02-21T06:13:59.921Z,60.67
2018-02-21T06:16:28.314Z,51.63
2018-02-21T06:18:56.684Z,51.43
2018-02-21T06:21:25.036Z,48.60
2018-02-21T06:23:53.432Z,58.67
2018-02-21T06:26:21.844Z,43.63
2018-02-21T06:28:50.221Z,50.70
2018-02-21T06:31:19.471Z,65.63
2018-02-21T06:33:47.881Z,65.00
2018-02-21T06:36:16.264Z,71.80
2018-02-21T06:38:44.620Z,61.87
2018-02-21T06:41:12.977Z,53.20
2018-02-21T06:43:41.367Z,47.70
2018-02-21T06:46:09.730Z,55.80
2018-02-21T06:48:38.103Z,54.80
2018-02-21T06:51:06.515Z,53.53
2018-02-21T06:53:34.873Z,53.90
2018-02-21T06:56:03.232Z,57.10
2018-02-21T06:58:31.943Z,50.80
2018-02-21T07:01:00.335Z,68.33
2018-02-21T07:03:28.696Z,53.53
2018-02-21T07:05:57.104Z,48.10
2018-02-21T07:08:25.457Z,62.33
2018-02-21T07:10:53.828Z,57.70
2018-02-21T07:13:22.208Z,55.50
2018-02-21T07:15:50.560Z,55.77
2018-02-21T07:18:19.410Z,83.80
2018-02-21T07:20:47.798Z,51.30
2018-02-21T07:23:16.160Z,70.83
2018-02-21T07:25:44.550Z,53.93
2018-02-21T07:28:13.021Z,59.80
2018-02-21T07:30:41.376Z,65.13
2018-02-21T07:33:09.771Z,50.80
2018-02-21T07:35:38.124Z,52.07
2018-02-21T07:38:06.571Z,59.00
2018-02-21T07:40:35.080Z,53.10
2018-02-21T07:43:03.481Z,62.03
2018-02-21T07:45:31.849Z,43.00
2018-02-21T07:48:00.202Z,46.47
2018-02-21T07:50:28.962Z,53.23
2018-02-21T07:52:57.329Z,51.60
2018-02-21T07:55:25.720Z,54.87
2018-02-21T07:57:54.072Z,51.83
2018-02-21T08:00:22.460Z,45.03
2018-02-21T08:02:50.840Z,46.27
2018-02-21T08:05:19.192Z,46.73
2018-02-21T08:07:47.569Z,41.40
2018-02-21T08:10:15.929Z,49.77
2018-02-21T08:12:44.763Z,47.30
2018-02-21T08:15:13.116Z,41.23
2018-02-21T08:17:41.484Z,48.17
2018-02-21T08:20:09.855Z,42.80
2018-02-21T08:22:38.253Z,46.70
2018-02-21T08:25:06.632Z,43.23
2018-02-21T08:27:35.680Z,47.43
2018-02-21T08:30:04.132Z,59.30
2018-02-21T08:32:32.646Z,45.73
2018-02-21T08:35:01.007Z,52.83
2018-02-21T08:37:29.384Z,48.83
2018-02-21T08:39:57.741Z,50.93
2018-02-21T08:42:26.100Z,41.77
2018-02-21T08:44:54.488Z,58.00
2018-02-21T08:47:22.968Z,43.43
2018-02-21T08:49:51.432Z,43.23
2018-02-21T08:52:19.903Z,44.33
2018-02-21T08:54:48.362Z,54.23
2018-02-21T08:57:17.328Z,43.90
2018-02-21T08:59:45.784Z,49.73
2018-02-21T09:02:14.260Z,44.20
2018-02-21T09:04:42.739Z,39.67
2018-02-21T09:07:11.519Z,44.70
2018-02-21T09:09:39.977Z,46.63
2018-02-21T09:12:08.833Z,48.93
2018-02-21T09:14:37.597Z,45.63
2018-02-21T09:17:06.062Z,46.17
2018-02-21T09:19:34.504Z,43.60
2018-02-21T09:22:02.977Z,45.50
2018-02-21T09:24:31.821Z,42.37
2018-02-21T09:27:00.264Z,49.23
2018-02-21T09:29:29.112Z,46.93
2018-02-21T09:31:57.553Z,44.50
2018-02-21T09:34:26.052Z,40.50
2018-02-21T09:36:54.497Z,42.00
2018-02-21T09:39:22.978Z,45.13
2018-02-21T09:41:51.904Z,36.63
2018-02-21T09:44:20.361Z,46.43
2018-02-21T09:46:48.827Z,49.93
2018-02-21T09:49:17.344Z,49.03
2018-02-21T09:51:45.831Z,49.03
2018-02-21T09:54:14.277Z,47.70
2018-02-21T09:56:43.112Z,34.10
2018-02-21T09:59:11.578Z,52.77
2018-02-21T10:01:40.023Z,47.27
2018-02-21T10:04:08.956Z,45.90
2018-02-21T10:06:37.416Z,47.77
2018-02-21T10:09:05.857Z,41.77
2018-02-21T10:11:34.300Z,56.07
2018-02-21T10:14:02.776Z,44.60
2018-02-21T10:16:31.270Z,37.90
2018-02-21T10:19:01.259Z,42.27
2018-02-21T10:21:29.709Z,36.93
2018-02-21T10:23:58.604Z,50.90
2018-02-21T10:26:27.061Z,44.00
2018-02-21T10:28:55.518Z,38.90
2018-02-21T10:31:23.974Z,39.13
2018-02-21T10:33:52.424Z,33.60
2018-02-21T10:36:21.283Z,34.53
2018-02-21T10:38:49.816Z,32.03
2018-02-21T10:41:18.296Z,37.30
2018-02-21T10:43:46.798Z,33.97
2018-02-21T10:46:15.250Z,43.13
2018-02-21T10:48:43.754Z,37.10
2018-02-21T10:51:12.576Z,34.00
2018-02-21T10:53:41.023Z,32.27
2018-02-21T10:56:09.523Z,32.67
2018-02-21T10:58:37.983Z,26.20
2018-02-21T11:01:12.014Z,24.83
2018-02-21T11:03:40.502Z,32.27
2018-02-21T11:06:08.959Z,38.13
2018-02-21T11:08:37.404Z,29.90
2018-02-21T11:11:06.280Z,27.97
2018-02-21T11:13:34.731Z,20.37
2018-02-21T11:16:03.192Z,27.40
2018-02-21T11:18:31.660Z,20.43
2018-02-21T11:21:00.778Z,26.77
2018-02-21T11:23:29.279Z,28.70
2018-02-21T11:25:57.716Z,21.73
2018-02-21T11:28:26.289Z,25.10
2018-02-21T11:30:55.124Z,22.50
2018-02-21T11:33:23.588Z,26.00
2018-02-21T11:35:52.063Z,26.53
2018-02-21T11:38:21.630Z,22.17
2018-02-21T11:40:50.084Z,22.80
2018-02-21T11:43:18.557Z,21.97
2018-02-21T11:45:47.004Z,25.20
2018-02-21T11:48:15.454Z,26.70
2018-02-21T11:50:44.321Z,26.50
2018-02-21T11:53:12.781Z,19.60
2018-02-21T11:55:41.244Z,22.90
2018-02-21T11:58:09.716Z,15.60
2018-02-21T12:00:38.156Z,15.63
2018-02-21T12:03:06.598Z,22.50
2018-02-21T12:05:35.084Z,24.53
2018-02-21T12:08:03.528Z,16.00
2018-02-21T12:10:32.367Z,15.57
2018-02-21T12:13:00.830Z,18.27
2018-02-21T12:15:29.281Z,20.30
2018-02-21T12:17:57.734Z,21.37
2018-02-21T12:20:26.216Z,23.50
2018-02-21T12:22:54.652Z,22.93
2018-02-21T12:25:23.109Z,24.40
2018-02-21T12:27:51.571Z,20.60
2018-02-21T12:30:20.404Z,20.03
2018-02-21T12:32:49.046Z,17.17
2018-02-21T12:35:17.497Z,28.93
2018-02-21T12:37:46.705Z,22.07
2018-02-21T12:40:21.043Z,19.77
2018-02-21T12:42:49.913Z,23.93
2018-02-21T12:45:18.360Z,26.20
2018-02-21T12:47:46.810Z,27.70
2018-02-21T12:50:15.254Z,16.23
2018-02-21T12:52:43.711Z,20.20
2018-02-21T12:55:12.164Z,18.50
2018-02-21T12:57:40.616Z,26.40
2018-02-21T13:00:09.476Z,18.93
2018-02-21T13:02:37.941Z,14.40
2018-02-21T13:05:06.386Z,19.20
2018-02-21T13:07:35.445Z,18.80
2018-02-21T13:10:03.887Z,16.10
2018-02-21T13:12:32.345Z,15.03
2018-02-21T13:15:00.852Z,18.03
2018-02-21T13:17:29.293Z,16.13
2018-02-21T13:19:58.148Z,15.10
2018-02-21T13:22:26.600Z,13.83
2018-02-21T13:24:55.048Z,13.93
2018-02-21T13:27:23.908Z,12.63
2018-02-21T13:29:52.356Z,18.20
2018-02-21T13:32:20.822Z,11.30
2018-02-21T13:34:49.264Z,15.37
2018-02-21T13:37:18.118Z,11.33
2018-02-21T13:39:46.588Z,19.93
2018-02-21T13:42:15.037Z,20.20
2018-02-21T13:44:43.495Z,15.00
2018-02-21T13:47:12.353Z,13.67
2018-02-21T13:49:40.803Z,13.40
2018-02-21T13:52:09.257Z,18.00
2018-02-21T13:54:38.113Z,16.07
2018-02-21T13:57:06.554Z,10.57
2018-02-21T13:59:34.996Z,11.43
2018-02-21T14:02:03.862Z,16.93
2018-02-21T14:04:32.309Z,10.07
2018-02-21T14:07:00.761Z,13.63
2018-02-21T14:09:29.617Z,10.13
2018-02-21T14:11:58.081Z,12.93
2018-02-21T14:14:26.541Z,13.00
2018-02-21T14:16:55.042Z,10.87
2018-02-21T14:19:23.485Z,13.00
2018-02-21T14:21:51.925Z,13.17
2018-02-21T14:24:20.386Z,12.20
2018-02-21T14:26:48.836Z,13.80
2018-02-21T14:29:17.267Z,12.00
2018-02-21T14:31:45.828Z,10.60
2018-02-21T14:34:14.276Z,21.60
2018-02-21T14:36:42.747Z,10.70
2018-02-21T14:39:11.589Z,17.97
2018-02-21T14:41:40.045Z,15.17
2018-02-21T14:44:08.541Z,23.07
2018-02-21T14:46:36.995Z,13.73
2018-02-21T14:49:05.463Z,18.20
2018-02-21T14:51:33.951Z,13.43
2018-02-21T14:54:02.384Z,13.03
2018-02-21T14:56:31.060Z,12.90
2018-02-21T14:58:59.504Z,14.10
2018-02-21T15:01:27.957Z,16.17
2018-02-21T15:03:56.808Z,13.53
2018-02-21T15:06:25.264Z,10.40
2018-02-21T15:08:53.704Z,11.97
2018-02-21T15:11:22.580Z,16.50
2018-02-21T15:13:51.061Z,19.33
2018-02-21T15:16:25.418Z,16.17
2018-02-21T15:18:53.889Z,16.63
2018-02-21T15:21:23.048Z,16.00
2018-02-21T15:23:51.514Z,17.43
2018-02-21T15:26:19.974Z,15.73
2018-02-21T15:28:48.508Z,15.40
2018-02-21T15:31:17.355Z,20.70
2018-02-21T15:33:45.792Z,18.53
2018-02-21T15:36:14.648Z,20.63
2018-02-21T15:38:43.157Z,20.10
2018-02-21T15:41:11.565Z,21.83
2018-02-21T15:43:40.041Z,17.20
2018-02-21T15:46:08.484Z,22.63
2018-02-21T15:48:37.353Z,21.40
2018-02-21T15:51:05.828Z,20.47
2018-02-21T15:53:34.286Z,19.00
2018-02-21T15:56:02.881Z,24.03
2018-02-21T15:58:31.361Z,18.43
2018-02-21T16:00:59.815Z,15.90
2018-02-21T16:03:28.260Z,29.17
2018-02-21T16:05:56.719Z,28.60
2018-02-21T16:08:25.197Z,25.67
2018-02-21T16:10:53.628Z,24.27
2018-02-21T16:13:23.545Z,21.50
2018-02-21T16:15:52.376Z,39.97
2018-02-21T16:18:20.819Z,27.23
2018-02-21T16:20:49.368Z,32.40
2018-02-21T16:23:17.853Z,21.40
2018-02-21T16:25:47.012Z,24.60
2018-02-21T16:28:15.489Z,17.50
2018-02-21T16:30:43.944Z,27.20
2018-02-21T16:33:12.408Z,27.80
2018-02-21T16:35:41.361Z,19.27
2018-02-21T16:38:09.970Z,24.93
2018-02-21T16:40:38.399Z,21.60
2018-02-21T16:43:06.888Z,16.93
2018-02-21T16:45:35.405Z,20.17
2018-02-21T16:48:03.872Z,28.43
2018-02-21T16:50:32.376Z,22.30
2018-02-21T16:53:00.885Z,22.90
2018-02-21T16:55:29.384Z,29.93
2018-02-21T16:57:57.899Z,18.67
2018-02-21T17:00:27.195Z,18.93
2018-02-21T17:02:54.957Z,18.63
2018-02-21T17:05:23.475Z,16.73
2018-02-21T17:07:52.392Z,15.50
2018-02-21T17:10:20.980Z,22.43
2018-02-21T17:12:49.470Z,20.23
2018-02-21T17:15:17.977Z,18.43
2018-02-21T17:17:46.502Z,24.70
2018-02-21T17:20:15.366Z,25.33
2018-02-21T17:22:43.876Z,16.80
2018-02-21T17:25:12.431Z,21.73
2018-02-21T17:27:40.905Z,22.70
2018-02-21T17:30:09.421Z,22.63
2018-02-21T17:32:38.386Z,31.23
2018-02-21T17:35:06.912Z,43.13
2018-02-21T17:37:35.636Z,25.63
2018-02-21T17:40:04.137Z,29.73
2018-02-21T17:42:33.508Z,23.13
2018-02-21T17:45:01.963Z,29.57
2018-02-21T17:47:30.833Z,42.80
2018-02-21T17:49:59.412Z,39.47
2018-02-21T17:52:27.866Z,28.63
2018-02-21T17:54:56.414Z,24.03
2018-02-21T17:57:24.897Z,38.17
2018-02-21T17:59:53.368Z,20.33
2018-02-21T18:02:21.888Z,30.80
2018-02-21T18:04:50.409Z,26.50
2018-02-21T18:07:19.249Z,32.00
2018-02-21T18:09:47.721Z,22.37
2018-02-21T18:12:16.192Z,44.03
2018-02-21T18:14:44.668Z,29.93
2018-02-21T18:17:13.145Z,30.77
2018-02-21T18:19:41.603Z,17.70
2018-02-21T18:22:10.457Z,21.17
2018-02-21T18:24:38.935Z,20.10
2018-02-21T18:27:07.423Z,23.40
2018-02-21T18:29:35.882Z,34.17
2018-02-21T18:32:04.341Z,28.00
2018-02-21T18:34:32.843Z,30.97
2018-02-21T18:37:01.328Z,20.40
2018-02-21T18:39:29.820Z,26.37
2018-02-21T18:41:58.300Z,31.37
2018-02-21T18:44:26.753Z,25.63
2018-02-21T18:46:55.222Z,28.50
2018-02-21T18:49:24.118Z,28.83
2018-02-21T18:51:52.577Z,28.03
2018-02-21T18:54:21.231Z,28.33
2018-02-21T18:56:50.415Z,29.67
2018-02-21T18:59:18.878Z,27.00
2018-02-21T19:01:47.342Z,30.30
2018-02-21T19:04:15.841Z,32.20
2018-02-21T19:06:45.781Z,26.63
2018-02-21T19:09:14.264Z,28.10
2018-02-21T19:11:44.385Z,34.67
2018-02-21T19:14:12.928Z,32.83
2018-02-21T19:16:41.429Z,47.90
2018-02-21T19:19:09.963Z,40.67
2018-02-21T19:21:38.843Z,27.73
2018-02-21T19:24:07.302Z,26.47
2018-02-21T19:26:35.817Z,26.97
2018-02-21T19:29:04.743Z,25.83
2018-02-21T19:31:33.241Z,27.63
2018-02-21T19:34:01.852Z,24.30
2018-02-21T19:36:30.342Z,28.03
2018-02-21T19:38:59.206Z,32.37
2018-02-21T19:41:28.486Z,25.40
2018-02-21T19:43:57.020Z,32.73
2018-02-21T19:46:25.632Z,26.33
2018-02-21T19:48:54.643Z,34.43
2018-02-21T19:51:23.132Z,29.43
2018-02-21T19:53:51.613Z,24.70
2018-02-21T19:56:20.161Z,23.33
2018-02-21T19:58:49.223Z,27.40
2018-02-21T20:01:17.740Z,26.43
2018-02-21T20:03:46.617Z,30.63
2018-02-21T20:06:15.500Z,25.80
2018-02-21T20:08:44.029Z,25.73
2018-02-21T20:11:12.517Z,22.30
2018-02-21T20:13:41.101Z,18.70
2018-02-21T20:16:09.617Z,18.17
2018-02-21T20:18:38.488Z,25.17
2018-02-21T20:21:06.997Z,19.53
2018-02-21T20:23:35.915Z,22.83
2018-02-21T20:26:04.826Z,16.80
2018-02-21T20:28:33.333Z,15.13
2018-02-21T20:31:01.975Z,20.57
2018-02-21T20:33:30.478Z,14.37
2018-02-21T20:35:59.392Z,15.57
2018-02-21T20:38:27.991Z,15.20
2018-02-21T20:40:56.527Z,18.10
2018-02-21T20:43:25.125Z,19.97
2018-02-21T20:45:53.726Z,14.87
2018-02-21T20:48:22.238Z,15.03
2018-02-21T20:50:50.732Z,16.97
2018-02-21T20:53:19.607Z,18.93
2018-02-21T20:55:48.132Z,14.70
2018-02-21T20:58:16.798Z,16.73
2018-02-21T21:00:45.526Z,14.67
2018-02-21T21:03:14.065Z,15.73
2018-02-21T21:05:42.608Z,25.23
2018-02-21T21:08:11.138Z,19.87
2018-02-21T21:10:40.349Z,20.03
2018-02-21T21:20:12.021Z,15.03
2018-02-21T21:22:40.553Z,17.63
2018-02-21T21:25:09.051Z,17.83
2018-02-21T21:27:37.542Z,15.20
2018-02-21T21:30:06.002Z,14.30
2018-02-21T21:32:34.474Z,14.93
2018-02-21T21:35:02.949Z,19.03
2018-02-21T21:37:31.471Z,15.33
2018-02-21T21:39:59.947Z,14.63
2018-02-21T21:42:28.437Z,16.90
2018-02-21T21:44:57.036Z,16.70
2018-02-21T21:47:25.550Z,24.23
2018-02-21T21:49:54.025Z,13.13
2018-02-21T21:52:22.995Z,20.33
2018-02-21T21:54:51.503Z,15.90
2018-02-21T21:57:20.266Z,16.23
2018-02-21T21:59:48.822Z,26.23
2018-02-21T22:02:18.064Z,16.63
2018-02-21T22:04:47.121Z,16.20
2018-02-21T22:07:15.697Z,16.60
2018-02-21T22:09:44.333Z,18.40
2018-02-21T22:12:12.827Z,23.13
2018-02-21T22:14:41.386Z,16.43
2018-02-21T22:17:10.277Z,18.70
2018-02-21T22:19:39.130Z,16.83
2018-02-21T22:22:07.588Z,16.90
2018-02-21T22:24:36.069Z,22.80
2018-02-21T22:27:04.549Z,18.57
2018-02-21T22:29:33.041Z,21.60
2018-02-21T22:32:01.496Z,21.87
2018-02-21T22:34:30.044Z,17.63
2018-02-21T22:36:58.893Z,17.80
2018-02-21T22:39:27.319Z,20.20
2018-02-21T22:41:56.164Z,19.67
2018-02-21T22:44:24.644Z,24.23
2018-02-21T22:46:53.136Z,23.50
2018-02-21T22:49:21.584Z,22.70
2018-02-21T22:51:50.131Z,18.93
2018-02-21T22:54:18.985Z,26.43
2018-02-21T22:56:47.460Z,18.33
2018-02-21T22:59:16.037Z,25.20
2018-02-21T23:01:44.628Z,24.30
2018-02-21T23:04:13.068Z,22.37
2018-02-21T23:06:41.504Z,28.80
2018-02-21T23:09:10.057Z,23.27
2018-02-21T23:11:38.593Z,25.70
2018-02-21T23:14:07.428Z,23.77
2018-02-21T23:16:36.940Z,26.30
2018-02-21T23:19:05.396Z,25.50
2018-02-21T23:21:33.832Z,29.00
2018-02-21T23:24:02.376Z,21.50
2018-02-21T23:26:30.855Z,22.77
2018-02-21T23:28:59.296Z,25.03
2018-02-21T23:31:28.232Z,24.70
2018-02-21T23:33:56.668Z,28.40
2018-02-21T23:36:25.605Z,25.03
2018-02-21T23:38:54.089Z,29.80
2018-02-21T23:41:22.528Z,27.97
2018-02-21T23:43:51.496Z,23.30
2018-02-21T23:46:20.044Z,26.67
2018-02-21T23:48:48.524Z,20.87
2018-02-21T23:51:17.008Z,21.37
2018-02-21T23:53:45.455Z,25.73
2018-02-21T23:56:14.491Z,26.50
2018-02-21T23:58:42.967Z,24.10
